Time;durP1;ratioP1;P1;durP2;ratioP2;P2;SDS_P1;SDS_P2;PMS_P1;PMS_P2;Temp;Humidity;BMP_temperature;BMP_pressure;BME280_temperature;BME280_humidity;BME280_pressure;Samples;Min_cycle;Max_cycle;Signal;HPM_P1;HPM_P2
2023/09/08 00:00:13;;;;;;;;;;;;;;;;;;6279946;22;19918;-86
2023/09/08 00:02:39;;;;;;;;;;;;;;;;;;6304198;22;19982;-86
2023/09/08 00:05:05;;;;;;;;;;;;;;;;;;6279147;22;19950;-86
2023/09/08 00:07:31;;;;;;;;;;;;;;;;;;6304512;22;19918;-87
2023/09/08 00:09:57;;;;;;;;;;;;;;;;;;6305750;22;19922;-86
2023/09/08 00:12:23;;;;;;;;;;;;;;;;;;6280179;22;20354;-86
2023/09/08 00:14:49;;;;;;;;;;;;;;;;;;6279571;22;19922;-86
2023/09/08 00:17:15;;;;;;;;;;;;;;;;;;6279214;22;19919;-86
2023/09/08 00:19:41;;;;;;;;;;;;;;;;;;6278934;22;20349;-86
2023/09/08 00:22:07;;;;;;;;;;;;;;;;;;6279144;22;19922;-87
2023/09/08 00:24:33;;;;;;;;;;;;;;;;;;6304551;22;19926;-86
2023/09/08 00:26:59;;;;;;;;;;;;;;;;;;6279674;22;20367;-86
2023/09/08 00:29:25;;;;;;;;;;;;;;;;;;6280336;22;19993;-86
2023/09/08 00:31:51;;;;;;;;;;;;;;;;;;6305710;22;19918;-86
2023/09/08 00:34:17;;;;;;;;;;;;;;;;;;6279862;22;20133;-86
2023/09/08 00:36:43;;;;;;;;;;;;;;;;;;6280561;22;20316;-87
2023/09/08 00:39:09;;;;;;;;;;;;;;;;;;6305998;22;19995;-87
2023/09/08 00:41:35;;;;;;;;;;;;;;;;;;6305375;22;19937;-87
2023/09/08 00:44:01;;;;;;;;;;;;;;;;;;6304541;22;19954;-86
2023/09/08 00:46:27;;;;;;;;;;;;;;;;;;6277879;22;19930;-87
2023/09/08 00:48:53;;;;;;;;;;;;;;;;;;6279837;22;19918;-86
2023/09/08 00:54:18;;;;;;;;;;;;;;;;;;6236457;22;19995;-85
2023/09/08 00:56:44;;;;;;;;;;;;;;;;;;6279218;22;20016;-86
2023/09/08 00:59:10;;;;;;;;;;;;;;;;;;6331151;22;19968;-86
2023/09/08 01:01:36;;;;;;;;;;;;;;;;;;6277642;22;20608;-87
2023/09/08 01:04:02;;;;;;;;;;;;;;;;;;6279603;22;19932;-86
2023/09/08 01:06:28;;;;;;;;;;;;;;;;;;6300945;22;19929;-86
2023/09/08 01:08:54;;;;;;;;;;;;;;;;;;6278978;22;19918;-86
2023/09/08 01:11:20;;;;;;;;;;;;;;;;;;6303757;22;19944;-87
2023/09/08 01:13:46;;;;;;;;;;;;;;;;;;6304082;22;20592;-87
2023/09/08 01:16:12;;;;;;;;;;;;;;;;;;6276985;22;19954;-86
2023/09/08 01:18:38;;;;;;;;;;;;;;;;;;6303473;22;19965;-87
2023/09/08 01:21:05;;;;;;;;;;;;;;;;;;6277871;22;19918;-87
2023/09/08 01:23:31;;;;;;;;;;;;;;;;;;6279357;22;20329;-86
2023/09/08 01:25:57;;;;;;;;;;;;;;;;;;6305205;22;19937;-86
2023/09/08 01:28:45;;;;;;;;;;;;;;;;;;;;;
2023/09/08 01:31:17;;;;;;;;;;;;;;;;;;6304054;22;19919;-87
2023/09/08 01:33:44;;;;;;;;;;;;;;;;;;6278239;22;19987;-87
2023/09/08 01:36:09;;;;;;;;;;;;;;;;;;6303690;22;20400;-87
2023/09/08 01:38:35;;;;;;;;;;;;;;;;;;6303901;22;19914;-87
2023/09/08 01:41:01;;;;;;;;;;;;;;;;;;6277015;22;19918;-87
2023/09/08 01:46:34;;;;;;;;;;;;;;;;;;6261962;22;20435;-87
2023/09/08 01:49:00;;;;;;;;;;;;;;;;;;6214330;22;19930;-86
2023/09/08 01:51:26;;;;;;;;;;;;;;;;;;6213853;22;19919;-86
2023/09/08 01:53:52;;;;;;;;;;;;;;;;;;6215455;22;20010;-87
2023/09/08 01:59:22;;;;;;;;;;;;;;;;;;6276306;22;19933;-87
2023/09/08 02:01:57;;;;;;;;;;;;;;;;;;6213111;22;19919;-86
2023/09/08 02:04:26;;;;;;;;;;;;;;;;;;6213201;22;19926;-87
2023/09/08 02:07:03;;;;;;;;;;;;;;;;;;6213458;22;19919;-87
2023/09/08 02:09:29;;;;;;;;;;;;;;;;;;6210956;22;19924;-87
2023/09/08 02:11:55;;;;;;;;;;;;;;;;;;6212390;22;19918;-87
2023/09/08 02:14:21;;;;;;;;;;;;;;;;;;6239276;22;20066;-87
2023/09/08 02:16:47;;;;;;;;;;;;;;;;;;6225344;22;20352;-87
2023/09/08 02:19:21;;;;;;;;;;;;;;;;;;6278048;22;19918;-87
2023/09/08 02:22:21;;;;;;;;;;;;;;;;;;6265086;22;20360;-87
2023/09/08 02:24:57;;;;;;;;;;;;;;;;;;;;;
2023/09/08 02:27:30;;;;;;;;;;;;;;;;;;6238236;22;19923;-86
2023/09/08 02:29:56;;;;;;;;;;;;;;;;;;6239875;22;20031;-87
2023/09/08 02:32:27;;;;;;;;;;;;;;;;;;6264984;22;19919;-87
2023/09/08 02:34:56;;;;;;;;;;;;;;;;;;6241557;22;20350;-87
2023/09/08 02:37:28;;;;;;;;;;;;;;;;;;6240835;22;19919;-87
2023/09/08 02:39:54;;;;;;;;;;;;;;;;;;6239582;22;19919;-87
2023/09/08 02:42:20;;;;;;;;;;;;;;;;;;6240384;22;19923;-87
2023/09/08 02:44:46;;;;;;;;;;;;;;;;;;6240101;22;20280;-87
2023/09/08 02:47:12;;;;;;;;;;;;;;;;;;6312556;22;19997;-87
2023/09/08 02:49:38;;;;;;;;;;;;;;;;;;6277981;22;19954;-87
2023/09/08 02:52:04;;;;;;;;;;;;;;;;;;6302561;22;19941;-87
2023/09/08 02:54:30;;;;;;;;;;;;;;;;;;6302759;22;19923;-87
2023/09/08 02:56:56;;;;;;;;;;;;;;;;;;6303109;22;19918;-87
2023/09/08 02:59:21;;;;;;;;;;;;;;;;;;6277026;22;20667;-86
2023/09/08 03:01:47;;;;;;;;;;;;;;;;;;6302976;22;19929;-87
2023/09/08 03:04:13;;;;;;;;;;;;;;;;;;6278691;22;19915;-86
2023/09/08 03:06:39;;;;;;;;;;;;;;;;;;6331836;22;19930;-87
2023/09/08 03:09:05;;;;;;;;;;;;;;;;;;6304595;22;20331;-87
2023/09/08 03:11:31;;;;;;;;;;;;;;;;;;6278641;22;20013;-87
2023/09/08 03:13:57;;;;;;;;;;;;;;;;;;6280162;22;19919;-87
2023/09/08 03:16:23;;;;;;;;;;;;;;;;;;6279895;22;20026;-87
2023/09/08 03:18:49;;;;;;;;;;;;;;;;;;6281942;22;19973;-87
2023/09/08 03:21:15;;;;;;;;;;;;;;;;;;6306762;22;19979;-87
2023/09/08 03:23:41;;;;;;;;;;;;;;;;;;6305577;22;19919;-87
2023/09/08 03:26:07;;;;;;;;;;;;;;;;;;6279680;22;19918;-87
2023/09/08 03:28:35;;;;;;;;;;;;;;;;;;6332454;22;19990;-87
2023/09/08 03:31:04;;;;;;;;;;;;;;;;;;6279105;22;19990;-87
2023/09/08 03:33:32;;;;;;;;;;;;;;;;;;6279020;22;19927;-87
2023/09/08 03:35:58;;;;;;;;;;;;;;;;;;6278232;22;19957;-87
2023/09/08 03:38:27;;;;;;;;;;;;;;;;;;6307323;22;19919;-87
2023/09/08 03:40:53;;;;;;;;;;;;;;;;;;6304985;22;19918;-86
2023/09/08 03:43:19;;;;;;;;;;;;;;;;;;6279507;22;19922;-87
2023/09/08 03:45:45;;;;;;;;;;;;;;;;;;6276411;22;20425;-87
2023/09/08 03:48:11;;;;;;;;;;;;;;;;;;6303046;22;19945;-87
2023/09/08 03:50:37;;;;;;;;;;;;;;;;;;6280009;22;20391;-87
2023/09/08 03:53:03;;;;;;;;;;;;;;;;;;6304917;22;19946;-87
2023/09/08 03:55:29;;;;;;;;;;;;;;;;;;6306627;22;19922;-87
2023/09/08 03:57:55;;;;;;;;;;;;;;;;;;6279057;22;19922;-87
2023/09/08 04:00:27;;;;;;;;;;;;;;;;;;6305402;22;19919;-87
2023/09/08 04:02:59;;;;;;;;;;;;;;;;;;6281327;22;20393;-87
2023/09/08 04:05:25;;;;;;;;;;;;;;;;;;6305021;22;19919;-87
2023/09/08 04:07:51;;;;;;;;;;;;;;;;;;6279253;22;19950;-87
2023/09/08 04:10:17;;;;;;;;;;;;;;;;;;6278015;22;19919;-87
2023/09/08 04:12:44;;;;;;;;;;;;;;;;;;6279279;22;19922;-87
2023/09/08 04:15:10;;;;;;;;;;;;;;;;;;6280085;22;19993;-87
2023/09/08 04:17:36;;;;;;;;;;;;;;;;;;6279254;22;19960;-88
2023/09/08 04:20:05;;;;;;;;;;;;;;;;;;6306076;22;19931;-87
2023/09/08 04:22:31;;;;;;;;;;;;;;;;;;6279844;22;19976;-87
2023/09/08 04:24:57;;;;;;;;;;;;;;;;;;6306819;22;20274;-87
2023/09/08 04:30:22;;;;;;;;;;;;;;;;;;6296138;22;20012;-87
2023/09/08 04:32:48;;;;;;;;;;;;;;;;;;6303268;22;19923;-87
2023/09/08 04:35:14;;;;;;;;;;;;;;;;;;6279341;22;19915;-88
2023/09/08 04:37:40;;;;;;;;;;;;;;;;;;6278178;22;20250;-87
2023/09/08 04:40:10;;;;;;;;;;;;;;;;;;6280559;22;19914;-88
2023/09/08 04:42:45;;;;;;;;;;;;;;;;;;6304880;22;19922;-88
2023/09/08 04:45:22;;;;;;;;;;;;;;;;;;6278802;22;19985;-88
2023/09/08 04:47:50;;;;;;;;;;;;;;;;;;6236011;22;19919;-87
2023/09/08 04:50:19;;;;;;;;;;;;;;;;;;6238914;22;20030;-88
2023/09/08 04:52:45;;;;;;;;;;;;;;;;;;6239972;22;20352;-88
2023/09/08 04:55:11;;;;;;;;;;;;;;;;;;6240318;22;19922;-88
2023/09/08 04:57:37;;;;;;;;;;;;;;;;;;6238736;22;19919;-88
2023/09/08 05:00:04;;;;;;;;;;;;;;;;;;6239216;22;19951;-88
2023/09/08 05:02:30;;;;;;;;;;;;;;;;;;6240756;22;19923;-88
2023/09/08 05:04:56;;;;;;;;;;;;;;;;;;6266322;22;19947;-88
2023/09/08 05:07:22;;;;;;;;;;;;;;;;;;6240620;22;19915;-87
2023/09/08 05:09:50;;;;;;;;;;;;;;;;;;6241099;22;20060;-87
2023/09/08 05:12:16;;;;;;;;;;;;;;;;;;6293936;22;19946;-87
2023/09/08 05:14:49;;;;;;;;;;;;;;;;;;6279827;22;20239;-88
2023/09/08 05:17:15;;;;;;;;;;;;;;;;;;6277612;22;19925;-88
2023/09/08 05:19:41;;;;;;;;;;;;;;;;;;6279056;22;19961;-88
2023/09/08 05:22:22;;;;;;;;;;;;;;;;;;6278141;22;19919;-88
2023/09/08 05:24:48;;;;;;;;;;;;;;;;;;6277012;22;19930;-87
2023/09/08 05:27:14;;;;;;;;;;;;;;;;;;6277894;22;19915;-88
2023/09/08 05:29:40;;;;;;;;;;;;;;;;;;6278626;22;19918;-87
2023/09/08 05:35:27;;;;;;;;;;;;;;;;;;6343426;22;19933;-84
2023/09/08 05:56:22;;;;;;;;;;;;;;;;;;6116923;23;19941;-87
2023/09/08 05:58:48;;;;;;;;;;;;;;;;;;6153042;23;19920;-87
2023/09/08 06:01:17;;;;;;;;;;;;;;;;;;6196771;22;19991;-88
2023/09/08 06:03:46;;;;;;;;;;;;;;;;;;6302898;22;20350;-86
2023/09/08 06:06:19;;;;;;;;;;;;;;;;;;6301725;22;19945;-87
2023/09/08 06:08:45;;;;;;;;;;;;;;;;;;6304504;22;19918;-87
2023/09/08 06:11:17;;;;;;;;;;;;;;;;;;6276290;22;19925;-87
2023/09/08 06:13:46;;;;;;;;;;;;;;;;;;6276522;22;19929;-87
2023/09/08 06:16:15;;;;;;;;;;;;;;;;;;6258451;22;20375;-86
2023/09/08 06:18:49;;;;;;;;;;;;;;;;;;6271214;22;19918;-87
2023/09/08 06:21:33;;;;;;;;;;;;;;;;;;6302414;22;20470;-87
2023/09/08 06:23:59;;;;;;;;;;;;;;;;;;6302349;22;19926;-87
2023/09/08 06:26:25;;;;;;;;;;;;;;;;;;6275113;22;19918;-87
2023/09/08 06:28:51;;;;;;;;;;;;;;;;;;6302014;22;19915;-85
2023/09/08 06:31:17;;;;;;;;;;;;;;;;;;6301789;22;19930;-85
2023/09/08 06:33:43;;;;;;;;;;;;;;;;;;6277779;22;19919;-85
2023/09/08 06:36:42;;;;;;;;;;;;;;;;;;6278368;22;20025;-85
2023/09/08 06:39:32;;;;;;;;;;;;;;;;;;;;;
2023/09/08 06:42:17;;;;;;;;;;;;;;;;;;;;;
2023/09/08 06:44:55;;;;;;;;;;;;;;;;;;6209387;23;19964;-84
2023/09/08 06:47:38;;;;;;;;;;;;;;;;;;;;;
2023/09/08 06:50:23;;;;;;;;;;;;;;;;;;6244620;23;19974;-85
2023/09/08 06:52:49;;;;;;;;;;;;;;;;;;6208750;23;19923;-88
2023/09/08 06:55:16;;;;;;;;;;;;;;;;;;6209406;23;20398;-88
2023/09/08 06:57:42;;;;;;;;;;;;;;;;;;6183388;23;20294;-88
2023/09/08 07:00:08;;;;;;;;;;;;;;;;;;6185098;23;19943;-88
2023/09/08 07:02:41;;;;;;;;;;;;;;;;;;6183535;23;20360;-88
2023/09/08 07:05:08;;;;;;;;;;;;;;;;;;6184680;23;19931;-88
2023/09/08 07:07:34;;;;;;;;;;;;;;;;;;6208376;23;19915;-88
2023/09/08 07:10:00;;;;;;;;;;;;;;;;;;6245688;22;19923;-88
2023/09/08 07:12:26;;;;;;;;;;;;;;;;;;6276445;22;19918;-88
2023/09/08 07:14:52;;;;;;;;;;;;;;;;;;6275603;22;19918;-88
2023/09/08 07:17:18;;;;;;;;;;;;;;;;;;6302468;22;19925;-88
2023/09/08 07:19:47;;;;;;;;;;;;;;;;;;6278471;22;20398;-88
2023/09/08 07:22:15;;;;;;;;;;;;;;;;;;6275784;22;19918;-88
2023/09/08 07:24:44;;;;;;;;;;;;;;;;;;6279136;22;20032;-89
2023/09/08 07:27:17;;;;;;;;;;;;;;;;;;6303108;22;19929;-89
2023/09/08 07:29:47;;;;;;;;;;;;;;;;;;6276650;22;20058;-90
2023/09/08 07:32:19;;;;;;;;;;;;;;;;;;6276260;22;20621;-89
2023/09/08 07:34:54;;;;;;;;;;;;;;;;;;6276718;22;19923;-89
2023/09/08 07:37:20;;;;;;;;;;;;;;;;;;6279241;22;19967;-88
2023/09/08 07:39:49;;;;;;;;;;;;;;;;;;6279264;22;19922;-89
2023/09/08 07:42:25;;;;;;;;;;;;;;;;;;6278684;22;19941;-89
2023/09/08 07:44:57;;;;;;;;;;;;;;;;;;6278182;22;19972;-89
2023/09/08 07:47:25;;;;;;;;;;;;;;;;;;6302123;22;19922;-89
2023/09/08 07:49:54;;;;;;;;;;;;;;;;;;6279594;22;19934;-88
2023/09/08 07:52:23;;;;;;;;;;;;;;;;;;6278994;22;19918;-89
2023/09/08 07:54:51;;;;;;;;;;;;;;;;;;6280268;22;19946;-89
2023/09/08 07:57:23;;;;;;;;;;;;;;;;;;6274667;22;20291;-89
2023/09/08 07:59:49;;;;;;;;;;;;;;;;;;6305987;22;19925;-88
2023/09/08 08:02:20;;;;;;;;;;;;;;;;;;6305692;22;19919;-89
2023/09/08 08:04:49;;;;;;;;;;;;;;;;;;6279229;22;19993;-88
2023/09/08 08:07:15;;;;;;;;;;;;;;;;;;6278928;22;19923;-89
2023/09/08 08:09:44;;;;;;;;;;;;;;;;;;6279700;22;20246;-88
2023/09/08 08:12:29;;;;;;;;;;;;;;;;;;6278935;22;20349;-88
2023/09/08 08:14:55;;;;;;;;;;;;;;;;;;6305634;22;20341;-88
2023/09/08 08:17:21;;;;;;;;;;;;;;;;;;6278849;22;19919;-88
2023/09/08 08:19:47;;;;;;;;;;;;;;;;;;6279352;22;19921;-88
2023/09/08 08:22:19;;;;;;;;;;;;;;;;;;6280249;22;19923;-88
2023/09/08 08:25:00;;;;;;;;;;;;;;;;;;6280726;22;19967;-88
2023/09/08 08:27:44;;;;;;;;;;;;;;;;;;6280307;22;19919;-88
2023/09/08 08:30:28;;;;;;;;;;;;;;;;;;6277389;22;19977;-88
2023/09/08 08:32:57;;;;;;;;;;;;;;;;;;6277898;22;19980;-88
2023/09/08 08:35:26;;;;;;;;;;;;;;;;;;6278903;22;19961;-88
2023/09/08 08:37:52;;;;;;;;;;;;;;;;;;6278830;22;20334;-88
2023/09/08 08:40:21;;;;;;;;;;;;;;;;;;6305910;22;19922;-88
2023/09/08 08:43:00;;;;;;;;;;;;;;;;;;;;;
2023/09/08 08:54:20;;;;;;;;;;;;;;;;;;6281060;22;20202;-84
2023/09/08 09:22:43;;;;;;;;;;;;;;;;;;;;;
2023/09/08 09:25:41;;;;;;;;;;;;;;;;;;6191225;22;19923;-85
2023/09/08 09:28:13;;;;;;;;;;;;;;;;;;6204090;22;19915;-85
2023/09/08 09:34:12;;;;;;;;;;;;;;;;;;6114029;23;19925;-85
2023/09/08 09:37:09;;;;;;;;;;;;;;;;;;;;;
2023/09/08 09:42:50;;;;;;;;;;;;;;;;;;;;;
2023/09/08 09:45:29;;;;;;;;;;;;;;;;;;;;;
2023/09/08 09:48:26;;;;;;;;;;;;;;;;;;6144485;23;19947;-85
2023/09/08 09:53:59;;;;;;;;;;;;;;;;;;;;;
2023/09/08 10:02:21;;;;;;;;;;;;;;;;;;;;;
2023/09/08 10:05:30;;;;;;;;;;;;;;;;;;6358202;22;19925;-85
2023/09/08 10:11:00;;;;;;;;;;;;;;;;;;6332883;22;19914;-85
2023/09/08 10:13:34;;;;;;;;;;;;;;;;;;6305164;22;20319;-85
2023/09/08 10:40:54;;;;;;;;;;;;;;;;;;;;;
2023/09/08 10:46:33;;;;;;;;;;;;;;;;;;6298945;22;19914;-86
2023/09/08 10:49:12;;;;;;;;;;;;;;;;;;6311261;22;19960;-85
2023/09/08 10:51:38;;;;;;;;;;;;;;;;;;6308953;22;19925;-86
2023/09/08 10:54:12;;;;;;;;;;;;;;;;;;6307673;22;19922;-86
2023/09/08 10:56:38;;;;;;;;;;;;;;;;;;6307907;22;19917;-86
2023/09/08 11:09:27;;;;;;;;;;;;;;;;;;6317472;22;20003;-86
2023/09/08 11:12:02;;;;;;;;;;;;;;;;;;6277320;22;19919;-86
2023/09/08 11:14:31;;;;;;;;;;;;;;;;;;6278701;22;19929;-85
2023/09/08 11:17:03;;;;;;;;;;;;;;;;;;6304469;22;19919;-86
2023/09/08 11:19:29;;;;;;;;;;;;;;;;;;6278175;22;20687;-86
2023/09/08 11:25:06;;;;;;;;;;;;;;;;;;6293285;22;19918;-86
2023/09/08 11:27:39;;;;;;;;;;;;;;;;;;6305546;22;20273;-86
2023/09/08 11:30:08;;;;;;;;;;;;;;;;;;6282402;22;19919;-86
2023/09/08 11:32:34;;;;;;;;;;;;;;;;;;6282013;22;19922;-86
2023/09/08 11:35:03;;;;;;;;;;;;;;;;;;6283473;22;19941;-86
2023/09/08 11:37:29;;;;;;;;;;;;;;;;;;6281913;22;19923;-86
2023/09/08 11:40:12;;;;;;;;;;;;;;;;;;6280061;22;19972;-86
2023/09/08 11:42:40;;;;;;;;;;;;;;;;;;6280316;22;19994;-85
2023/09/08 11:45:33;;;;;;;;;;;;;;;;;;6305960;22;19925;-87
2023/09/08 11:48:07;;;;;;;;;;;;;;;;;;6281498;22;20006;-85
2023/09/08 11:50:42;;;;;;;;;;;;;;;;;;6304889;22;19918;-86
2023/09/08 11:53:08;;;;;;;;;;;;;;;;;;6281100;22;19926;-86
2023/09/08 11:55:36;;;;;;;;;;;;;;;;;;6280804;22;19915;-86
2023/09/08 11:58:02;;;;;;;;;;;;;;;;;;6306243;22;19925;-86
2023/09/08 12:00:32;;;;;;;;;;;;;;;;;;6280061;22;20242;-86
2023/09/08 12:02:58;;;;;;;;;;;;;;;;;;6281077;22;20293;-86
2023/09/08 12:05:26;;;;;;;;;;;;;;;;;;6281796;22;19949;-86
2023/09/08 12:07:52;;;;;;;;;;;;;;;;;;6338011;22;19955;-85
2023/09/08 12:10:19;;;;;;;;;;;;;;;;;;6309091;22;20048;-86
2023/09/08 12:12:47;;;;;;;;;;;;;;;;;;6312440;22;20278;-86
2023/09/08 12:15:21;;;;;;;;;;;;;;;;;;6313829;22;19989;-86
2023/09/08 12:17:47;;;;;;;;;;;;;;;;;;6311559;22;19953;-85
2023/09/08 12:20:13;;;;;;;;;;;;;;;;;;6337631;22;19918;-86
2023/09/08 12:22:39;;;;;;;;;;;;;;;;;;6309410;22;19929;-85
2023/09/08 12:25:05;;;;;;;;;;;;;;;;;;6311735;22;19954;-85
2023/09/08 12:27:34;;;;;;;;;;;;;;;;;;6308336;22;20539;-85
2023/09/08 12:30:19;;;;;;;;;;;;;;;;;;6334942;22;20231;-86
2023/09/08 12:32:48;;;;;;;;;;;;;;;;;;6269610;22;19929;-85
2023/09/08 12:35:14;;;;;;;;;;;;;;;;;;6272359;22;19919;-85
2023/09/08 12:37:40;;;;;;;;;;;;;;;;;;6271527;22;19919;-86
2023/09/08 12:40:09;;;;;;;;;;;;;;;;;;6272080;22;19918;-85
2023/09/08 12:45:29;;;;;;;;;;;;;;;;;;6271767;22;20343;-86
2023/09/08 12:47:57;;;;;;;;;;;;;;;;;;6272477;22;19918;-85
2023/09/08 12:50:26;;;;;;;;;;;;;;;;;;6273767;22;19918;-85
2023/09/08 12:52:53;;;;;;;;;;;;;;;;;;6269549;22;20012;-85
2023/09/08 12:55:22;;;;;;;;;;;;;;;;;;6273824;22;19915;-85
2023/09/08 12:57:54;;;;;;;;;;;;;;;;;;6271643;22;19915;-85
2023/09/08 13:00:20;;;;;;;;;;;;;;;;;;6272976;22;19945;-85
2023/09/08 13:02:48;;;;;;;;;;;;;;;;;;6277533;22;20359;-85
2023/09/08 13:05:15;;;;;;;;;;;;;;;;;;6312970;22;19918;-85
2023/09/08 13:07:41;;;;;;;;;;;;;;;;;;6338132;22;19921;-85
2023/09/08 13:10:07;;;;;;;;;;;;;;;;;;6312933;22;20001;-85
2023/09/08 13:12:33;;;;;;;;;;;;;;;;;;6312027;22;19988;-86
2023/09/08 13:14:59;;;;;;;;;;;;;;;;;;6312679;22;19925;-86
2023/09/08 13:17:25;;;;;;;;;;;;;;;;;;6311154;22;19918;-86
2023/09/08 13:19:52;;;;;;;;;;;;;;;;;;6312190;22;20035;-85
2023/09/08 13:22:21;;;;;;;;;;;;;;;;;;6311790;22;19948;-85
2023/09/08 13:24:47;;;;;;;;;;;;;;;;;;6312740;22;19918;-85
2023/09/08 13:27:17;;;;;;;;;;;;;;;;;;6312732;22;20341;-85
2023/09/08 13:29:43;;;;;;;;;;;;;;;;;;6312420;22;19991;-86
2023/09/08 13:32:17;;;;;;;;;;;;;;;;;;6311045;22;19967;-85
2023/09/08 13:34:43;;;;;;;;;;;;;;;;;;6312744;22;19925;-85
2023/09/08 13:37:12;;;;;;;;;;;;;;;;;;6312516;22;19922;-85
2023/09/08 13:39:48;;;;;;;;;;;;;;;;;;6312606;22;20412;-86
2023/09/08 13:42:14;;;;;;;;;;;;;;;;;;6337454;22;20234;-85
2023/09/08 13:44:40;;;;;;;;;;;;;;;;;;6312164;22;19953;-85
2023/09/08 13:50:00;;;;;;;;;;;;;;;;;;6338334;22;19954;-85
2023/09/08 13:52:26;;;;;;;;;;;;;;;;;;6311305;22;19925;-86
2023/09/08 13:54:52;;;;;;;;;;;;;;;;;;6312874;22;20331;-86
2023/09/08 13:57:19;;;;;;;;;;;;;;;;;;6311145;22;19940;-86
2023/09/08 13:59:46;;;;;;;;;;;;;;;;;;6310567;22;19926;-86
2023/09/08 14:02:12;;;;;;;;;;;;;;;;;;6309220;22;19925;-86
2023/09/08 14:04:40;;;;;;;;;;;;;;;;;;6311646;22;20254;-86
2023/09/08 14:07:09;;;;;;;;;;;;;;;;;;6307646;22;19957;-86
2023/09/08 14:09:41;;;;;;;;;;;;;;;;;;6310756;22;19923;-86
2023/09/08 14:12:07;;;;;;;;;;;;;;;;;;6309368;22;19922;-86
2023/09/08 14:14:33;;;;;;;;;;;;;;;;;;6336389;22;19967;-86
2023/09/08 14:17:04;;;;;;;;;;;;;;;;;;6308742;22;19918;-86
2023/09/08 14:19:39;;;;;;;;;;;;;;;;;;6311951;22;20300;-86
2023/09/08 14:22:27;;;;;;;;;;;;;;;;;;6340756;22;20013;-86
2023/09/08 14:24:53;;;;;;;;;;;;;;;;;;6309427;22;19944;-86
2023/09/08 14:27:23;;;;;;;;;;;;;;;;;;6335353;22;20133;-86
2023/09/08 14:29:55;;;;;;;;;;;;;;;;;;6309451;22;20322;-86
2023/09/08 14:32:27;;;;;;;;;;;;;;;;;;6309655;22;19921;-86
2023/09/08 14:34:59;;;;;;;;;;;;;;;;;;6310194;22;19993;-86
2023/09/08 14:37:25;;;;;;;;;;;;;;;;;;6308858;22;19924;-87
2023/09/08 14:39:54;;;;;;;;;;;;;;;;;;6334093;22;19918;-86
2023/09/08 14:42:40;;;;;;;;;;;;;;;;;;6307491;22;19918;-86
2023/09/08 14:45:06;;;;;;;;;;;;;;;;;;6309709;22;19998;-86
2023/09/08 14:47:32;;;;;;;;;;;;;;;;;;6308648;22;20314;-86
2023/09/08 14:49:58;;;;;;;;;;;;;;;;;;6336090;22;19914;-86
2023/09/08 14:52:24;;;;;;;;;;;;;;;;;;6335211;22;19922;-86
2023/09/08 14:54:50;;;;;;;;;;;;;;;;;;6307050;22;19927;-86
2023/09/08 14:57:18;;;;;;;;;;;;;;;;;;6308995;22;20319;-86
2023/09/08 14:59:48;;;;;;;;;;;;;;;;;;6334510;22;20285;-86
2023/09/08 15:02:14;;;;;;;;;;;;;;;;;;6311110;22;20315;-86
2023/09/08 15:04:47;;;;;;;;;;;;;;;;;;6336528;22;19925;-85
2023/09/08 15:07:13;;;;;;;;;;;;;;;;;;6333304;22;19964;-87
2023/09/08 15:09:39;;;;;;;;;;;;;;;;;;6307173;22;19958;-86
2023/09/08 15:12:06;;;;;;;;;;;;;;;;;;6308376;22;19968;-86
2023/09/08 15:14:39;;;;;;;;;;;;;;;;;;6336331;22;19922;-87
2023/09/08 15:20:10;;;;;;;;;;;;;;;;;;6308520;22;19925;-87
2023/09/08 15:22:47;;;;;;;;;;;;;;;;;;6296383;22;19919;-86
2023/09/08 15:28:11;;;;;;;;;;;;;;;;;;6298135;22;19934;-87
2023/09/08 15:30:46;;;;;;;;;;;;;;;;;;6300288;22;19919;-85
2023/09/08 15:33:14;;;;;;;;;;;;;;;;;;6272661;22;20316;-86
2023/09/08 15:35:40;;;;;;;;;;;;;;;;;;6272972;22;19918;-86
2023/09/08 15:38:17;;;;;;;;;;;;;;;;;;6301027;22;19925;-86
2023/09/08 15:41:01;;;;;;;;;;;;;;;;;;6302138;22;19941;-86
2023/09/08 15:43:27;;;;;;;;;;;;;;;;;;6275667;22;19915;-86
2023/09/08 15:45:53;;;;;;;;;;;;;;;;;;6300447;22;20392;-86
2023/09/08 15:48:25;;;;;;;;;;;;;;;;;;6279350;22;19925;-86
2023/09/08 15:50:59;;;;;;;;;;;;;;;;;;6274627;22;20041;-86
2023/09/08 15:53:49;;;;;;;;;;;;;;;;;;6273723;22;19922;-86
2023/09/08 15:56:49;;;;;;;;;;;;;;;;;;6336847;22;19948;-86
2023/09/08 15:59:34;;;;;;;;;;;;;;;;;;;;;
2023/09/08 16:05:16;;;;;;;;;;;;;;;;;;6208280;23;19954;-86
2023/09/08 16:14:22;;;;;;;;;;;;;;;;;;6186420;23;20659;-86
2023/09/08 16:17:06;;;;;;;;;;;;;;;;;;6205411;23;19920;-86
2023/09/08 16:19:35;;;;;;;;;;;;;;;;;;6202597;23;19919;-85
2023/09/08 16:25:18;;;;;;;;;;;;;;;;;;;;;
2023/09/08 16:39:24;;;;;;;;;;;;;;;;;;;;;
2023/09/08 16:42:16;;;;;;;;;;;;;;;;;;6263257;22;19919;-86
2023/09/08 16:44:54;;;;;;;;;;;;;;;;;;6191762;22;19953;-85
2023/09/08 16:47:22;;;;;;;;;;;;;;;;;;6237370;22;19962;-85
2023/09/08 16:53:05;;;;;;;;;;;;;;;;;;6229343;23;19955;-86
2023/09/08 16:55:53;;;;;;;;;;;;;;;;;;;;;
2023/09/08 17:04:11;;;;;;;;;;;;;;;;;;6262649;22;19919;-85
2023/09/08 17:06:58;;;;;;;;;;;;;;;;;;6209892;22;19994;-85
2023/09/08 17:15:54;;;;;;;;;;;;;;;;;;6253523;22;20028;-85
2023/09/08 17:21:53;;;;;;;;;;;;;;;;;;6241430;23;19973;-84
2023/09/08 17:33:10;;;;;;;;;;;;;;;;;;6117121;23;19925;-84
2023/09/08 17:38:47;;;;;;;;;;;;;;;;;;;;;
2023/09/08 17:44:23;;;;;;;;;;;;;;;;;;6292743;22;20001;-84
2023/09/08 17:47:05;;;;;;;;;;;;;;;;;;;;;
2023/09/08 17:49:35;;;;;;;;;;;;;;;;;;6301514;22;19998;-84
2023/09/08 17:52:12;;;;;;;;;;;;;;;;;;6273590;22;19926;-84
2023/09/08 17:54:39;;;;;;;;;;;;;;;;;;6300404;22;20332;-84
2023/09/08 17:57:11;;;;;;;;;;;;;;;;;;6275468;22;20464;-83
2023/09/08 17:59:40;;;;;;;;;;;;;;;;;;6278077;22;19922;-84
2023/09/08 18:02:06;;;;;;;;;;;;;;;;;;6303648;22;19993;-83
2023/09/08 18:04:32;;;;;;;;;;;;;;;;;;6307843;22;20327;-83
2023/09/08 18:07:07;;;;;;;;;;;;;;;;;;6333837;22;19993;-83
2023/09/08 18:09:33;;;;;;;;;;;;;;;;;;6308033;22;19999;-84
2023/09/08 18:11:59;;;;;;;;;;;;;;;;;;6308228;22;19918;-83
2023/09/08 18:14:25;;;;;;;;;;;;;;;;;;6307989;22;19922;-83
2023/09/08 18:16:54;;;;;;;;;;;;;;;;;;6307522;22;19918;-83
2023/09/08 18:19:20;;;;;;;;;;;;;;;;;;6333532;22;19922;-83
2023/09/08 18:21:46;;;;;;;;;;;;;;;;;;6306816;22;19918;-83
2023/09/08 18:24:12;;;;;;;;;;;;;;;;;;6309248;22;19960;-83
2023/09/08 18:26:38;;;;;;;;;;;;;;;;;;6308284;22;19918;-83
2023/09/08 18:29:04;;;;;;;;;;;;;;;;;;6336505;22;19918;-83
2023/09/08 18:31:31;;;;;;;;;;;;;;;;;;6306220;22;19957;-83
2023/09/08 18:33:57;;;;;;;;;;;;;;;;;;6332489;22;20385;-83
2023/09/08 18:36:26;;;;;;;;;;;;;;;;;;6333929;22;20399;-83
2023/09/08 18:39:07;;;;;;;;;;;;;;;;;;6308494;22;19948;-83
2023/09/08 18:41:37;;;;;;;;;;;;;;;;;;6333624;22;20641;-83
2023/09/08 18:44:04;;;;;;;;;;;;;;;;;;6308680;22;19918;-83
2023/09/08 18:46:30;;;;;;;;;;;;;;;;;;6308273;22;19918;-83
2023/09/08 18:48:56;;;;;;;;;;;;;;;;;;6306191;22;19925;-83
2023/09/08 18:51:22;;;;;;;;;;;;;;;;;;6305461;22;19960;-83
2023/09/08 18:53:48;;;;;;;;;;;;;;;;;;6304916;22;20636;-83
2023/09/08 18:56:17;;;;;;;;;;;;;;;;;;6306430;22;19989;-83
2023/09/08 18:58:43;;;;;;;;;;;;;;;;;;6306779;22;19963;-83
2023/09/08 19:01:09;;;;;;;;;;;;;;;;;;6306462;22;19922;-83
2023/09/08 19:09:37;;;;;;;;;;;;;;;;;;6211820;22;19919;-83
2023/09/08 19:12:03;;;;;;;;;;;;;;;;;;6212224;22;20358;-85
2023/09/08 19:14:29;;;;;;;;;;;;;;;;;;6248856;22;19929;-86
2023/09/08 19:16:57;;;;;;;;;;;;;;;;;;6305698;22;20001;-86
2023/09/08 19:19:23;;;;;;;;;;;;;;;;;;6332354;22;19918;-87
2023/09/08 19:21:49;;;;;;;;;;;;;;;;;;6306435;22;19941;-86
2023/09/08 19:24:17;;;;;;;;;;;;;;;;;;6306527;22;19919;-87
2023/09/08 19:26:43;;;;;;;;;;;;;;;;;;6304650;22;19942;-86
2023/09/08 19:29:09;;;;;;;;;;;;;;;;;;6332208;22;19986;-86
2023/09/08 19:31:36;;;;;;;;;;;;;;;;;;6306156;22;20004;-86
2023/09/08 19:34:02;;;;;;;;;;;;;;;;;;6330477;22;19922;-86
2023/09/08 19:36:28;;;;;;;;;;;;;;;;;;6304745;22;19925;-86
2023/09/08 19:44:34;;;;;;;;;;;;;;;;;;6372739;22;19918;-83
2023/09/08 19:47:00;;;;;;;;;;;;;;;;;;6304322;22;19917;-83
2023/09/08 19:49:26;;;;;;;;;;;;;;;;;;6307418;22;19925;-83
2023/09/08 19:51:52;;;;;;;;;;;;;;;;;;6306940;22;19918;-86
2023/09/08 19:54:18;;;;;;;;;;;;;;;;;;6307210;22;20689;-83
2023/09/08 19:56:44;;;;;;;;;;;;;;;;;;6307296;22;19981;-84
2023/09/08 19:59:10;;;;;;;;;;;;;;;;;;6306964;22;19922;-83
2023/09/08 20:01:36;;;;;;;;;;;;;;;;;;6361098;22;20602;-84
2023/09/08 20:04:52;;;;;;;;;;;;;;;;;;6363223;22;19918;-83
2023/09/08 20:07:06;;;;;;;;;;;;;;;;;;6325672;22;19989;-83
2023/09/08 20:09:32;;;;;;;;;;;;;;;;;;6306919;22;20362;-83
2023/09/08 20:11:58;;;;;;;;;;;;;;;;;;6332884;22;20319;-83
2023/09/08 20:14:26;;;;;;;;;;;;;;;;;;6308569;22;20342;-84
2023/09/08 20:17:03;;;;;;;;;;;;;;;;;;6307330;22;20001;-84
2023/09/08 20:22:04;;;;;;;;;;;;;;;;;;6330395;22;19923;-83
2023/09/08 20:24:30;;;;;;;;;;;;;;;;;;6298753;22;20295;-91
2023/09/08 20:26:56;;;;;;;;;;;;;;;;;;6272764;22;19914;-91
2023/09/08 20:29:22;;;;;;;;;;;;;;;;;;6270519;22;19919;-91
2023/09/08 20:31:48;;;;;;;;;;;;;;;;;;6241178;22;19928;-91
2023/09/08 20:34:16;;;;;;;;;;;;;;;;;;6245097;22;19930;-92
2023/09/08 20:36:42;;;;;;;;;;;;;;;;;;6244979;22;19919;-90
2023/09/08 20:39:08;;;;;;;;;;;;;;;;;;6244273;22;20002;-90
2023/09/08 20:41:34;;;;;;;;;;;;;;;;;;6268751;22;19919;-91
2023/09/08 20:44:00;;;;;;;;;;;;;;;;;;6244892;22;19919;-90
2023/09/08 20:46:26;;;;;;;;;;;;;;;;;;6266916;22;19919;-90